Holliston, MA

10:37 AM EST on February 27, 2015 (GMT -0500)
KMAHOLLI3 | Change Station
CLOSE
Current Station
Personal Weather Station
Location: Holliston, MA
Elevation: 190 ft
Nearby Weather Stations

Elev 190 ft 42.18 °N, 71.41 °W | Updated 9 minutes ago

Clear
Clear
23.7 °F
Feels Like 24 °F
N
2.2
Wind Variable Wind from ESE

Today
High -- | Low -- °F
--% Chance of Precip.
Yesterday
High -- | Low -- °F
Precip. -- in
6:24 AM 5:33 PM
Waxing Gibbous, 69% visible
Pressure 30.35 in
Visibility 10.0 miles
Clouds Clear
Windchill 24 °F
Dew Point -6 °F
Humidity 26%
Rainfall 0.00 in
Snow Depth Not available.
UV 4 out of 12
Pollen .40 out of 12
Air Quality Not available.
Flu Activity Not available.
METAR KOWD 271453Z 31005KT 10SM CLR M07/M21 A3035 RMK AO2 SLP277 T10721211 51021

More Conditions Fewer Conditions

Pressure 30.35 in
Visibility 10.0 miles
Clouds Clear
Windchill 24 °F
Dew Point -6 °F
Humidity 26%
Rainfall 0.00 in
Snow Depth Not available.
UV 4 out of 12
Pollen .40 out of 12
Air Quality Not available.
Flu Activity Not available.
METAR KOWD 271453Z 31005KT 10SM CLR M07/M21 A3035 RMK AO2 SLP277 T10721211 51021

More Conditions Fewer Conditions

10-Day Weather Forecast

Almanac

Astronomy

Feb. 27, 2015 Rise Set
Actual Time
Civil Twilight
Nautical Twilight
Astronomical Twilight
Moon
Length of Visible Light
Length of Day
Tomorrow will be .
, % of the Moon is Illuminated

Today's Extremes

State Highs State Lows

Community

WunderPhotos

Upload Photos

1,800,699 photos uploaded!

WunderBlogs® & News

Nearby

Air Quality

  Air Quality AQ Index Pollutant
Not available.

Snow Depth

Station Depth Elevation

Earthquake Activity

City Distance Mag. Time & Date
Minimum magnitude displayed is 2.5.

Coastal Water Temperatures

Place Temperature

Nearby Weather Stations